This is the latest recevied weather packets stored in our database for station/object KK6LVQ-13. If no packets are shown the sender has not sent any weather packets the latest 10 day(s).
| Time | Temp. | Humidity | Pressure | Rain* | Wind** | Luminosity | Snow |
|---|---|---|---|---|---|---|---|
| 1777758623 | 17.78° C | 75% | 1017.9 hPa | 0 mm | - | 737 W/m² | - |
| 1777757714 | 17.78° C | 75% | 1017.9 hPa | 0 mm | - | 714 W/m² | - |
| 1777757413 | 18.89° C | 73% | 1017.8 hPa | 0 mm | - | 756 W/m² | - |
| 1777757111 | 18.89° C | 71% | 1018 hPa | 0 mm | - | 804 W/m² | - |
| 1777756808 | 18.33° C | 71% | 1018 hPa | 0 mm | - | 807 W/m² | - |
| 1777756504 | 17.22° C | 75% | 1018 hPa | 0 mm | - | 749 W/m² | - |
| 1777756201 | 17.78° C | 72% | 1018.3 hPa | 0 mm | - | 800 W/m² | - |
| 1777755898 | 17.22° C | 74% | 1018.3 hPa | 0 mm | - | 891 W/m² | - |
| 1777755595 | 17.78° C | 75% | 1018.4 hPa | 0 mm | - | 367 W/m² | - |
| 1777755291 | 16.67° C | 76% | 1018.4 hPa | 0 mm | - | 414 W/m² | - |
| 1777753776 | 16.11° C | 77% | 1018.9 hPa | 0 mm | - | 504 W/m² | - |
| 1777753473 | 16.67° C | 78% | 1018.8 hPa | 0 mm | - | 359 W/m² | - |
| 1777753171 | 16.67° C | 77% | 1018.9 hPa | 0 mm | - | 340 W/m² | - |
| 1777752867 | 16.67° C | 78% | 1019.1 hPa | 0 mm | - | 342 W/m² | - |
| 1777752564 | 16.67° C | 77% | 1019.1 hPa | 0 mm | - | 365 W/m² | - |
| 1777752259 | 16.11° C | 77% | 1019.4 hPa | 0 mm | - | 394 W/m² | - |
| 1777751958 | 16.67° C | 77% | 1019.2 hPa | 0 mm | - | 360 W/m² | - |
| 1777751654 | 16.67° C | 78% | 1019.2 hPa | 0 mm | - | 459 W/m² | - |
| 1777751351 | 16.67° C | 77% | 1019.4 hPa | 0 mm | - | 448 W/m² | - |
| 1777750744 | 15.56° C | 81% | 1019.3 hPa | 0 mm | - | 435 W/m² | - |
| 1777750441 | 16.11° C | 78% | 1019.3 hPa | 0 mm | - | 410 W/m² | - |
| 1777750136 | 15.56° C | 78% | 1019.7 hPa | 0 mm | - | 245 W/m² | - |
| 1777749834 | 16.11° C | 78% | 1019.3 hPa | 0 mm | - | 311 W/m² | - |
| 1777749530 | 15.56° C | 81% | 1019.6 hPa | 0 mm | - | 306 W/m² | - |
| 1777748926 | 15.56° C | 79% | 1019.6 hPa | 0 mm | - | 307 W/m² | - |
* Rain latest hour (hover to see other rain measurements)
** Current wind speed in m/s (hover to see current wind gust speed)